sensor_id;sensor_type;location;lat;lon;timestamp;P1;durP1;ratioP1;P2;durP2;ratioP2
41739;SDS011;27422;52.444;13.300;2022-08-01T00:01:33;3.70;;;2.50;;
41739;SDS011;27422;52.444;13.300;2022-08-01T00:03:59;6.75;;;2.90;;
41739;SDS011;27422;52.444;13.300;2022-08-01T00:06:25;4.22;;;2.60;;
41739;SDS011;27422;52.444;13.300;2022-08-01T00:08:50;3.30;;;2.30;;
41739;SDS011;27422;52.444;13.300;2022-08-01T00:11:16;4.05;;;2.50;;
41739;SDS011;27422;52.444;13.300;2022-08-01T00:13:41;4.47;;;2.30;;
41739;SDS011;27422;52.444;13.300;2022-08-01T00:16:07;4.45;;;2.50;;
41739;SDS011;27422;52.444;13.300;2022-08-01T00:18:32;4.90;;;2.55;;
41739;SDS011;27422;52.444;13.300;2022-08-01T00:20:57;5.35;;;2.60;;
41739;SDS011;27422;52.444;13.300;2022-08-01T00:23:23;3.47;;;2.30;;
41739;SDS011;27422;52.444;13.300;2022-08-01T00:25:48;3.97;;;2.30;;
41739;SDS011;27422;52.444;13.300;2022-08-01T00:28:14;4.47;;;2.42;;
41739;SDS011;27422;52.444;13.300;2022-08-01T00:30:39;4.82;;;2.85;;
41739;SDS011;27422;52.444;13.300;2022-08-01T00:33:04;4.60;;;2.58;;
41739;SDS011;27422;52.444;13.300;2022-08-01T00:35:30;4.30;;;2.50;;
41739;SDS011;27422;52.444;13.300;2022-08-01T00:37:55;4.57;;;2.60;;
41739;SDS011;27422;52.444;13.300;2022-08-01T00:40:21;4.15;;;2.22;;
41739;SDS011;27422;52.444;13.300;2022-08-01T00:42:46;4.72;;;2.35;;
41739;SDS011;27422;52.444;13.300;2022-08-01T00:45:12;5.63;;;2.50;;
41739;SDS011;27422;52.444;13.300;2022-08-01T00:47:37;5.15;;;2.70;;
41739;SDS011;27422;52.444;13.300;2022-08-01T00:50:03;3.60;;;2.17;;
41739;SDS011;27422;52.444;13.300;2022-08-01T00:52:29;4.00;;;2.60;;
41739;SDS011;27422;52.444;13.300;2022-08-01T00:54:55;4.30;;;2.72;;
41739;SDS011;27422;52.444;13.300;2022-08-01T00:57:21;3.38;;;2.40;;
41739;SDS011;27422;52.444;13.300;2022-08-01T00:59:46;4.38;;;2.70;;
41739;SDS011;27422;52.444;13.300;2022-08-01T01:02:12;4.75;;;2.70;;
41739;SDS011;27422;52.444;13.300;2022-08-01T01:04:37;4.25;;;2.47;;
41739;SDS011;27422;52.444;13.300;2022-08-01T01:07:17;4.53;;;2.58;;
41739;SDS011;27422;52.444;13.300;2022-08-01T01:09:55;3.97;;;2.83;;
41739;SDS011;27422;52.444;13.300;2022-08-01T01:20:13;5.28;;;2.53;;
41739;SDS011;27422;52.444;13.300;2022-08-01T01:30:30;4.75;;;2.80;;
41739;SDS011;27422;52.444;13.300;2022-08-01T01:32:58;4.22;;;2.70;;
41739;SDS011;27422;52.444;13.300;2022-08-01T01:35:25;3.97;;;3.00;;
41739;SDS011;27422;52.444;13.300;2022-08-01T01:37:55;4.75;;;2.80;;
41739;SDS011;27422;52.444;13.300;2022-08-01T01:40:23;5.88;;;2.83;;
41739;SDS011;27422;52.444;13.300;2022-08-01T01:42:49;5.82;;;2.53;;
41739;SDS011;27422;52.444;13.300;2022-08-01T01:45:16;4.95;;;2.88;;
41739;SDS011;27422;52.444;13.300;2022-08-01T01:47:43;3.95;;;2.85;;
41739;SDS011;27422;52.444;13.300;2022-08-01T01:50:09;5.72;;;2.80;;
41739;SDS011;27422;52.444;13.300;2022-08-01T01:55:04;4.30;;;2.95;;
41739;SDS011;27422;52.444;13.300;2022-08-01T01:57:37;4.38;;;2.80;;
41739;SDS011;27422;52.444;13.300;2022-08-01T02:00:04;5.70;;;3.15;;
41739;SDS011;27422;52.444;13.300;2022-08-01T02:02:32;4.70;;;3.08;;
41739;SDS011;27422;52.444;13.300;2022-08-01T02:04:58;4.38;;;2.92;;
41739;SDS011;27422;52.444;13.300;2022-08-01T02:07:24;4.20;;;2.90;;
41739;SDS011;27422;52.444;13.300;2022-08-01T02:09:50;6.82;;;3.20;;
41739;SDS011;27422;52.444;13.300;2022-08-01T02:12:16;3.95;;;2.75;;
41739;SDS011;27422;52.444;13.300;2022-08-01T02:14:42;4.35;;;3.00;;
41739;SDS011;27422;52.444;13.300;2022-08-01T02:17:11;4.78;;;3.05;;
41739;SDS011;27422;52.444;13.300;2022-08-01T02:19:36;4.43;;;3.05;;
41739;SDS011;27422;52.444;13.300;2022-08-01T02:22:07;4.78;;;3.08;;
41739;SDS011;27422;52.444;13.300;2022-08-01T02:24:39;5.38;;;3.10;;
41739;SDS011;27422;52.444;13.300;2022-08-01T02:27:09;5.70;;;3.13;;
41739;SDS011;27422;52.444;13.300;2022-08-01T02:30:10;4.53;;;3.00;;
41739;SDS011;27422;52.444;13.300;2022-08-01T02:32:36;4.65;;;2.95;;
41739;SDS011;27422;52.444;13.300;2022-08-01T02:35:03;6.03;;;3.10;;
41739;SDS011;27422;52.444;13.300;2022-08-01T02:37:33;4.35;;;2.88;;
41739;SDS011;27422;52.444;13.300;2022-08-01T02:39:59;4.65;;;3.30;;
41739;SDS011;27422;52.444;13.300;2022-08-01T02:42:26;6.38;;;2.97;;
41739;SDS011;27422;52.444;13.300;2022-08-01T02:44:52;6.38;;;3.53;;
41739;SDS011;27422;52.444;13.300;2022-08-01T02:47:19;5.03;;;3.10;;
41739;SDS011;27422;52.444;13.300;2022-08-01T02:49:45;5.50;;;3.25;;
41739;SDS011;27422;52.444;13.300;2022-08-01T02:52:13;4.15;;;2.88;;
41739;SDS011;27422;52.444;13.300;2022-08-01T02:54:40;5.72;;;3.38;;
41739;SDS011;27422;52.444;13.300;2022-08-01T02:57:07;3.95;;;2.80;;
41739;SDS011;27422;52.444;13.300;2022-08-01T02:59:33;4.60;;;3.20;;
41739;SDS011;27422;52.444;13.300;2022-08-01T03:02:02;5.38;;;3.22;;
41739;SDS011;27422;52.444;13.300;2022-08-01T03:06:55;4.60;;;3.17;;
41739;SDS011;27422;52.444;13.300;2022-08-01T03:09:23;4.60;;;3.40;;
41739;SDS011;27422;52.444;13.300;2022-08-01T03:11:50;4.40;;;3.17;;
41739;SDS011;27422;52.444;13.300;2022-08-01T03:14:16;4.70;;;3.22;;
41739;SDS011;27422;52.444;13.300;2022-08-01T03:16:43;4.18;;;3.35;;
41739;SDS011;27422;52.444;13.300;2022-08-01T03:19:10;5.00;;;3.17;;
41739;SDS011;27422;52.444;13.300;2022-08-01T03:21:36;4.55;;;2.95;;
41739;SDS011;27422;52.444;13.300;2022-08-01T03:24:03;5.47;;;3.20;;
41739;SDS011;27422;52.444;13.300;2022-08-01T03:26:30;5.22;;;3.33;;
41739;SDS011;27422;52.444;13.300;2022-08-01T03:29:04;4.18;;;3.10;;
41739;SDS011;27422;52.444;13.300;2022-08-01T03:31:33;4.40;;;3.22;;
41739;SDS011;27422;52.444;13.300;2022-08-01T03:34:00;4.68;;;3.00;;
41739;SDS011;27422;52.444;13.300;2022-08-01T03:36:26;4.68;;;3.00;;
41739;SDS011;27422;52.444;13.300;2022-08-01T03:38:52;4.00;;;2.63;;
41739;SDS011;27422;52.444;13.300;2022-08-01T03:41:21;4.28;;;3.17;;
41739;SDS011;27422;52.444;13.300;2022-08-01T03:43:57;3.85;;;2.92;;
41739;SDS011;27422;52.444;13.300;2022-08-01T03:46:40;4.40;;;3.00;;
41739;SDS011;27422;52.444;13.300;2022-08-01T03:49:14;5.53;;;3.03;;
41739;SDS011;27422;52.444;13.300;2022-08-01T03:51:42;3.97;;;2.85;;
41739;SDS011;27422;52.444;13.300;2022-08-01T03:54:10;4.43;;;2.85;;
41739;SDS011;27422;52.444;13.300;2022-08-01T03:56:35;4.00;;;2.63;;
41739;SDS011;27422;52.444;13.300;2022-08-01T03:59:03;5.32;;;3.08;;
41739;SDS011;27422;52.444;13.300;2022-08-01T04:01:29;4.50;;;3.17;;
41739;SDS011;27422;52.444;13.300;2022-08-01T04:03:57;4.38;;;2.92;;
41739;SDS011;27422;52.444;13.300;2022-08-01T04:06:23;6.60;;;3.50;;
41739;SDS011;27422;52.444;13.300;2022-08-01T04:08:48;4.57;;;2.92;;
41739;SDS011;27422;52.444;13.300;2022-08-01T04:11:20;5.32;;;3.20;;
41739;SDS011;27422;52.444;13.300;2022-08-01T04:13:47;6.25;;;4.10;;
41739;SDS011;27422;52.444;13.300;2022-08-01T04:16:13;5.60;;;3.70;;
41739;SDS011;27422;52.444;13.300;2022-08-01T04:18:38;5.88;;;3.58;;
41739;SDS011;27422;52.444;13.300;2022-08-01T04:21:04;5.35;;;3.65;;
41739;SDS011;27422;52.444;13.300;2022-08-01T04:23:29;6.53;;;4.28;;
41739;SDS011;27422;52.444;13.300;2022-08-01T04:25:56;5.78;;;3.50;;
41739;SDS011;27422;52.444;13.300;2022-08-01T04:28:23;5.82;;;4.03;;
41739;SDS011;27422;52.444;13.300;2022-08-01T04:30:49;7.00;;;3.95;;
41739;SDS011;27422;52.444;13.300;2022-08-01T04:33:15;6.35;;;4.28;;
41739;SDS011;27422;52.444;13.300;2022-08-01T04:35:45;7.07;;;4.18;;
41739;SDS011;27422;52.444;13.300;2022-08-01T04:38:12;6.25;;;4.43;;
41739;SDS011;27422;52.444;13.300;2022-08-01T04:40:41;6.15;;;4.05;;
41739;SDS011;27422;52.444;13.300;2022-08-01T04:43:07;6.63;;;3.92;;
41739;SDS011;27422;52.444;13.300;2022-08-01T04:45:33;7.25;;;3.92;;
41739;SDS011;27422;52.444;13.300;2022-08-01T04:47:59;7.10;;;5.20;;
41739;SDS011;27422;52.444;13.300;2022-08-01T04:50:25;7.60;;;4.82;;
41739;SDS011;27422;52.444;13.300;2022-08-01T04:52:50;6.80;;;4.43;;
41739;SDS011;27422;52.444;13.300;2022-08-01T04:55:16;6.35;;;4.20;;
41739;SDS011;27422;52.444;13.300;2022-08-01T04:57:44;5.60;;;4.00;;
41739;SDS011;27422;52.444;13.300;2022-08-01T05:00:10;6.82;;;4.15;;
41739;SDS011;27422;52.444;13.300;2022-08-01T05:02:36;5.43;;;3.75;;
41739;SDS011;27422;52.444;13.300;2022-08-01T05:05:02;6.28;;;4.10;;
41739;SDS011;27422;52.444;13.300;2022-08-01T05:07:27;7.20;;;4.50;;
41739;SDS011;27422;52.444;13.300;2022-08-01T05:09:54;7.90;;;5.05;;
41739;SDS011;27422;52.444;13.300;2022-08-01T05:12:19;7.63;;;5.47;;
41739;SDS011;27422;52.444;13.300;2022-08-01T05:14:45;8.13;;;5.60;;
41739;SDS011;27422;52.444;13.300;2022-08-01T05:17:11;7.95;;;4.65;;
41739;SDS011;27422;52.444;13.300;2022-08-01T05:19:39;6.43;;;4.40;;
41739;SDS011;27422;52.444;13.300;2022-08-01T05:22:05;6.82;;;4.22;;
41739;SDS011;27422;52.444;13.300;2022-08-01T05:24:33;6.50;;;4.80;;
41739;SDS011;27422;52.444;13.300;2022-08-01T05:27:00;6.03;;;4.35;;
41739;SDS011;27422;52.444;13.300;2022-08-01T05:29:26;5.68;;;4.10;;
41739;SDS011;27422;52.444;13.300;2022-08-01T05:31:55;6.50;;;4.00;;
41739;SDS011;27422;52.444;13.300;2022-08-01T05:34:22;6.30;;;4.30;;
41739;SDS011;27422;52.444;13.300;2022-08-01T05:36:48;5.40;;;3.65;;
41739;SDS011;27422;52.444;13.300;2022-08-01T05:39:13;7.18;;;3.92;;
41739;SDS011;27422;52.444;13.300;2022-08-01T05:41:39;6.50;;;3.83;;
41739;SDS011;27422;52.444;13.300;2022-08-01T05:44:05;5.57;;;3.75;;
41739;SDS011;27422;52.444;13.300;2022-08-01T05:46:30;4.68;;;3.38;;
41739;SDS011;27422;52.444;13.300;2022-08-01T05:48:57;4.35;;;3.20;;
41739;SDS011;27422;52.444;13.300;2022-08-01T05:51:23;5.93;;;3.10;;
41739;SDS011;27422;52.444;13.300;2022-08-01T05:53:48;4.00;;;2.60;;
41739;SDS011;27422;52.444;13.300;2022-08-01T05:56:14;4.40;;;3.20;;
41739;SDS011;27422;52.444;13.300;2022-08-01T05:58:39;5.00;;;3.30;;
41739;SDS011;27422;52.444;13.300;2022-08-01T06:01:05;3.97;;;2.75;;
41739;SDS011;27422;52.444;13.300;2022-08-01T06:03:30;4.68;;;3.10;;
41739;SDS011;27422;52.444;13.300;2022-08-01T06:05:57;5.65;;;3.20;;
41739;SDS011;27422;52.444;13.300;2022-08-01T06:08:22;4.55;;;2.92;;
41739;SDS011;27422;52.444;13.300;2022-08-01T06:10:48;3.90;;;2.80;;
41739;SDS011;27422;52.444;13.300;2022-08-01T06:13:13;4.72;;;2.97;;
41739;SDS011;27422;52.444;13.300;2022-08-01T06:15:39;3.70;;;2.50;;
41739;SDS011;27422;52.444;13.300;2022-08-01T06:18:04;4.70;;;2.97;;
41739;SDS011;27422;52.444;13.300;2022-08-01T06:20:30;6.15;;;2.75;;
41739;SDS011;27422;52.444;13.300;2022-08-01T06:22:55;3.90;;;2.33;;
41739;SDS011;27422;52.444;13.300;2022-08-01T06:25:21;5.47;;;2.20;;
41739;SDS011;27422;52.444;13.300;2022-08-01T06:27:46;4.13;;;2.47;;
41739;SDS011;27422;52.444;13.300;2022-08-01T06:30:12;4.22;;;2.20;;
41739;SDS011;27422;52.444;13.300;2022-08-01T06:32:38;4.28;;;2.10;;
41739;SDS011;27422;52.444;13.300;2022-08-01T06:35:03;3.33;;;2.22;;
41739;SDS011;27422;52.444;13.300;2022-08-01T06:37:30;6.35;;;2.47;;
41739;SDS011;27422;52.444;13.300;2022-08-01T06:39:56;4.40;;;2.15;;
41739;SDS011;27422;52.444;13.300;2022-08-01T06:42:25;4.18;;;2.03;;
41739;SDS011;27422;52.444;13.300;2022-08-01T06:44:50;4.47;;;2.50;;
41739;SDS011;27422;52.444;13.300;2022-08-01T06:47:16;3.30;;;2.10;;
41739;SDS011;27422;52.444;13.300;2022-08-01T06:49:41;3.72;;;1.90;;
41739;SDS011;27422;52.444;13.300;2022-08-01T06:52:06;4.35;;;2.10;;
41739;SDS011;27422;52.444;13.300;2022-08-01T06:54:32;3.22;;;1.80;;
41739;SDS011;27422;52.444;13.300;2022-08-01T06:56:57;3.53;;;2.05;;
41739;SDS011;27422;52.444;13.300;2022-08-01T06:59:23;2.95;;;1.60;;
41739;SDS011;27422;52.444;13.300;2022-08-01T07:01:48;3.92;;;1.92;;
41739;SDS011;27422;52.444;13.300;2022-08-01T07:04:13;3.00;;;1.80;;
41739;SDS011;27422;52.444;13.300;2022-08-01T07:06:39;3.20;;;1.73;;
41739;SDS011;27422;52.444;13.300;2022-08-01T07:09:04;3.25;;;1.60;;
41739;SDS011;27422;52.444;13.300;2022-08-01T07:11:29;3.80;;;2.20;;
41739;SDS011;27422;52.444;13.300;2022-08-01T07:13:55;3.80;;;1.88;;
41739;SDS011;27422;52.444;13.300;2022-08-01T07:16:21;3.60;;;2.33;;
41739;SDS011;27422;52.444;13.300;2022-08-01T07:18:47;2.92;;;1.73;;
41739;SDS011;27422;52.444;13.300;2022-08-01T07:21:13;4.30;;;2.00;;
41739;SDS011;27422;52.444;13.300;2022-08-01T07:23:38;3.97;;;1.70;;
41739;SDS011;27422;52.444;13.300;2022-08-01T07:26:03;3.38;;;1.80;;
41739;SDS011;27422;52.444;13.300;2022-08-01T07:28:29;3.00;;;1.60;;
41739;SDS011;27422;52.444;13.300;2022-08-01T07:30:55;3.50;;;1.80;;
41739;SDS011;27422;52.444;13.300;2022-08-01T07:33:20;3.30;;;1.90;;
41739;SDS011;27422;52.444;13.300;2022-08-01T07:35:47;3.90;;;2.35;;
41739;SDS011;27422;52.444;13.300;2022-08-01T07:38:12;4.10;;;1.90;;
41739;SDS011;27422;52.444;13.300;2022-08-01T07:40:40;3.90;;;2.30;;
41739;SDS011;27422;52.444;13.300;2022-08-01T07:43:05;4.10;;;2.33;;
41739;SDS011;27422;52.444;13.300;2022-08-01T07:45:30;4.15;;;2.20;;
41739;SDS011;27422;52.444;13.300;2022-08-01T07:47:56;4.18;;;2.20;;
41739;SDS011;27422;52.444;13.300;2022-08-01T07:50:21;3.42;;;2.08;;
41739;SDS011;27422;52.444;13.300;2022-08-01T07:52:47;3.15;;;1.98;;
41739;SDS011;27422;52.444;13.300;2022-08-01T07:55:12;3.60;;;2.20;;
41739;SDS011;27422;52.444;13.300;2022-08-01T07:57:38;3.97;;;2.20;;
41739;SDS011;27422;52.444;13.300;2022-08-01T08:00:04;4.30;;;2.45;;
41739;SDS011;27422;52.444;13.300;2022-08-01T08:04:56;4.32;;;2.65;;
41739;SDS011;27422;52.444;13.300;2022-08-01T08:07:21;5.00;;;3.35;;
41739;SDS011;27422;52.444;13.300;2022-08-01T08:09:47;5.00;;;2.97;;
41739;SDS011;27422;52.444;13.300;2022-08-01T08:12:12;5.38;;;3.35;;
41739;SDS011;27422;52.444;13.300;2022-08-01T08:14:38;7.28;;;3.47;;
41739;SDS011;27422;52.444;13.300;2022-08-01T08:17:04;5.22;;;3.38;;
41739;SDS011;27422;52.444;13.300;2022-08-01T08:19:30;5.47;;;3.45;;
41739;SDS011;27422;52.444;13.300;2022-08-01T08:21:58;4.93;;;2.95;;
41739;SDS011;27422;52.444;13.300;2022-08-01T08:24:24;4.88;;;2.42;;
41739;SDS011;27422;52.444;13.300;2022-08-01T08:26:51;3.83;;;2.30;;
41739;SDS011;27422;52.444;13.300;2022-08-01T08:29:21;4.65;;;2.33;;
41739;SDS011;27422;52.444;13.300;2022-08-01T08:31:47;4.57;;;2.33;;
41739;SDS011;27422;52.444;13.300;2022-08-01T08:34:12;3.10;;;1.90;;
41739;SDS011;27422;52.444;13.300;2022-08-01T08:36:38;2.40;;;1.38;;
41739;SDS011;27422;52.444;13.300;2022-08-01T08:39:24;2.80;;;1.40;;
41739;SDS011;27422;52.444;13.300;2022-08-01T08:41:50;3.53;;;1.50;;
41739;SDS011;27422;52.444;13.300;2022-08-01T08:44:18;3.25;;;1.50;;
41739;SDS011;27422;52.444;13.300;2022-08-01T08:46:48;2.72;;;1.25;;
41739;SDS011;27422;52.444;13.300;2022-08-01T08:49:18;4.72;;;1.67;;
41739;SDS011;27422;52.444;13.300;2022-08-01T08:51:46;2.78;;;0.80;;
41739;SDS011;27422;52.444;13.300;2022-08-01T08:54:13;2.50;;;1.30;;
41739;SDS011;27422;52.444;13.300;2022-08-01T08:56:39;4.70;;;1.40;;
41739;SDS011;27422;52.444;13.300;2022-08-01T08:59:05;2.75;;;1.00;;
41739;SDS011;27422;52.444;13.300;2022-08-01T09:01:32;1.73;;;0.70;;
41739;SDS011;27422;52.444;13.300;2022-08-01T09:03:58;2.38;;;0.80;;
41739;SDS011;27422;52.444;13.300;2022-08-01T09:06:24;1.70;;;0.82;;
41739;SDS011;27422;52.444;13.300;2022-08-01T09:08:50;1.73;;;0.80;;
41739;SDS011;27422;52.444;13.300;2022-08-01T09:11:15;1.88;;;0.90;;
41739;SDS011;27422;52.444;13.300;2022-08-01T09:13:41;2.22;;;0.95;;
41739;SDS011;27422;52.444;13.300;2022-08-01T09:16:08;1.88;;;1.00;;
41739;SDS011;27422;52.444;13.300;2022-08-01T09:18:42;1.95;;;0.85;;
41739;SDS011;27422;52.444;13.300;2022-08-01T09:26:03;2.50;;;1.20;;
41739;SDS011;27422;52.444;13.300;2022-08-01T09:28:29;2.53;;;1.15;;
41739;SDS011;27422;52.444;13.300;2022-08-01T09:30:56;5.85;;;1.20;;
41739;SDS011;27422;52.444;13.300;2022-08-01T09:33:22;2.20;;;1.00;;
41739;SDS011;27422;52.444;13.300;2022-08-01T09:35:54;3.17;;;1.02;;
41739;SDS011;27422;52.444;13.300;2022-08-01T09:38:21;3.05;;;1.10;;
41739;SDS011;27422;52.444;13.300;2022-08-01T09:40:55;2.22;;;1.02;;
41739;SDS011;27422;52.444;13.300;2022-08-01T09:43:21;2.35;;;1.10;;
41739;SDS011;27422;52.444;13.300;2022-08-01T09:45:47;1.88;;;0.95;;
41739;SDS011;27422;52.444;13.300;2022-08-01T09:48:13;2.67;;;1.08;;
41739;SDS011;27422;52.444;13.300;2022-08-01T09:50:44;1.80;;;0.82;;
41739;SDS011;27422;52.444;13.300;2022-08-01T09:53:12;1.60;;;0.90;;
41739;SDS011;27422;52.444;13.300;2022-08-01T09:55:38;3.35;;;1.00;;
41739;SDS011;27422;52.444;13.300;2022-08-01T09:58:04;2.83;;;1.07;;
41739;SDS011;27422;52.444;13.300;2022-08-01T10:00:30;3.30;;;1.10;;
41739;SDS011;27422;52.444;13.300;2022-08-01T10:02:57;1.95;;;1.08;;
41739;SDS011;27422;52.444;13.300;2022-08-01T10:05:33;2.47;;;0.93;;
41739;SDS011;27422;52.444;13.300;2022-08-01T10:08:00;2.72;;;0.85;;
41739;SDS011;27422;52.444;13.300;2022-08-01T10:10:28;1.85;;;0.88;;
41739;SDS011;27422;52.444;13.300;2022-08-01T10:12:55;2.33;;;1.00;;
41739;SDS011;27422;52.444;13.300;2022-08-01T10:15:21;2.78;;;1.00;;
41739;SDS011;27422;52.444;13.300;2022-08-01T10:17:53;1.60;;;0.88;;
41739;SDS011;27422;52.444;13.300;2022-08-01T10:20:20;2.10;;;0.90;;
41739;SDS011;27422;52.444;13.300;2022-08-01T10:22:49;2.92;;;1.00;;
41739;SDS011;27422;52.444;13.300;2022-08-01T10:25:15;2.00;;;0.80;;
41739;SDS011;27422;52.444;13.300;2022-08-01T10:27:43;3.08;;;0.82;;
41739;SDS011;27422;52.444;13.300;2022-08-01T10:30:10;7.75;;;0.80;;
41739;SDS011;27422;52.444;13.300;2022-08-01T10:32:36;1.95;;;0.68;;
41739;SDS011;27422;52.444;13.300;2022-08-01T10:35:03;2.13;;;0.82;;
41739;SDS011;27422;52.444;13.300;2022-08-01T10:37:29;1.65;;;0.80;;
41739;SDS011;27422;52.444;13.300;2022-08-01T10:39:56;2.47;;;0.80;;
41739;SDS011;27422;52.444;13.300;2022-08-01T10:42:22;1.70;;;0.77;;
41739;SDS011;27422;52.444;13.300;2022-08-01T10:44:48;1.92;;;1.00;;
41739;SDS011;27422;52.444;13.300;2022-08-01T10:47:15;1.58;;;0.70;;
41739;SDS011;27422;52.444;13.300;2022-08-01T10:50:06;1.63;;;0.77;;
41739;SDS011;27422;52.444;13.300;2022-08-01T10:53:03;2.97;;;0.82;;
41739;SDS011;27422;52.444;13.300;2022-08-01T10:55:44;3.15;;;0.90;;
41739;SDS011;27422;52.444;13.300;2022-08-01T10:58:30;1.50;;;0.70;;
41739;SDS011;27422;52.444;13.300;2022-08-01T11:01:19;1.63;;;0.70;;
41739;SDS011;27422;52.444;13.300;2022-08-01T11:06:35;1.30;;;0.50;;
41739;SDS011;27422;52.444;13.300;2022-08-01T11:09:05;1.98;;;0.60;;
41739;SDS011;27422;52.444;13.300;2022-08-01T11:11:56;1.87;;;0.90;;
41739;SDS011;27422;52.444;13.300;2022-08-01T11:14:22;1.85;;;0.77;;
41739;SDS011;27422;52.444;13.300;2022-08-01T11:16:47;2.15;;;0.80;;
41739;SDS011;27422;52.444;13.300;2022-08-01T11:19:13;1.63;;;0.73;;
41739;SDS011;27422;52.444;13.300;2022-08-01T11:27:20;2.22;;;0.80;;
41739;SDS011;27422;52.444;13.300;2022-08-01T11:32:45;2.25;;;0.80;;
41739;SDS011;27422;52.444;13.300;2022-08-01T11:35:38;1.30;;;0.70;;
41739;SDS011;27422;52.444;13.300;2022-08-01T11:44:00;2.17;;;0.82;;
41739;SDS011;27422;52.444;13.300;2022-08-01T11:54:49;2.42;;;0.80;;
41739;SDS011;27422;52.444;13.300;2022-08-01T11:57:23;1.73;;;0.80;;
41739;SDS011;27422;52.444;13.300;2022-08-01T11:59:53;2.10;;;0.73;;
41739;SDS011;27422;52.444;13.300;2022-08-01T12:02:23;3.90;;;0.80;;
41739;SDS011;27422;52.444;13.300;2022-08-01T12:07:26;2.08;;;0.75;;
41739;SDS011;27422;52.444;13.300;2022-08-01T12:12:25;1.10;;;0.55;;
41739;SDS011;27422;52.444;13.300;2022-08-01T12:14:52;1.65;;;0.80;;
41739;SDS011;27422;52.444;13.300;2022-08-01T12:17:20;1.58;;;0.77;;
41739;SDS011;27422;52.444;13.300;2022-08-01T12:19:46;1.55;;;0.60;;
41739;SDS011;27422;52.444;13.300;2022-08-01T12:22:14;4.18;;;0.88;;
41739;SDS011;27422;52.444;13.300;2022-08-01T12:24:41;3.58;;;1.00;;
41739;SDS011;27422;52.444;13.300;2022-08-01T12:27:08;1.48;;;0.60;;
41739;SDS011;27422;52.444;13.300;2022-08-01T12:29:38;2.15;;;0.70;;
41739;SDS011;27422;52.444;13.300;2022-08-01T12:32:20;1.30;;;0.60;;
41739;SDS011;27422;52.444;13.300;2022-08-01T12:34:51;1.33;;;0.50;;
41739;SDS011;27422;52.444;13.300;2022-08-01T12:37:17;1.65;;;0.60;;
41739;SDS011;27422;52.444;13.300;2022-08-01T12:39:43;2.08;;;0.57;;
41739;SDS011;27422;52.444;13.300;2022-08-01T12:42:09;1.63;;;0.68;;
41739;SDS011;27422;52.444;13.300;2022-08-01T12:44:36;1.25;;;0.60;;
41739;SDS011;27422;52.444;13.300;2022-08-01T12:47:02;2.72;;;0.70;;
41739;SDS011;27422;52.444;13.300;2022-08-01T12:49:28;0.88;;;0.50;;
41739;SDS011;27422;52.444;13.300;2022-08-01T12:51:54;1.35;;;0.70;;
41739;SDS011;27422;52.444;13.300;2022-08-01T12:54:19;2.33;;;0.93;;
41739;SDS011;27422;52.444;13.300;2022-08-01T12:56:45;1.52;;;0.60;;
41739;SDS011;27422;52.444;13.300;2022-08-01T13:01:55;1.55;;;0.60;;
41739;SDS011;27422;52.444;13.300;2022-08-01T13:04:22;1.00;;;0.50;;
41739;SDS011;27422;52.444;13.300;2022-08-01T13:06:48;1.08;;;0.50;;
41739;SDS011;27422;52.444;13.300;2022-08-01T13:09:17;1.58;;;0.60;;
41739;SDS011;27422;52.444;13.300;2022-08-01T13:11:43;3.58;;;0.50;;
41739;SDS011;27422;52.444;13.300;2022-08-01T13:14:09;3.15;;;0.60;;
41739;SDS011;27422;52.444;13.300;2022-08-01T13:16:46;1.20;;;0.43;;
41739;SDS011;27422;52.444;13.300;2022-08-01T13:19:12;1.48;;;0.50;;
41739;SDS011;27422;52.444;13.300;2022-08-01T13:21:38;1.02;;;0.50;;
41739;SDS011;27422;52.444;13.300;2022-08-01T13:24:04;1.27;;;0.40;;
41739;SDS011;27422;52.444;13.300;2022-08-01T13:26:38;0.90;;;0.50;;
41739;SDS011;27422;52.444;13.300;2022-08-01T13:29:06;3.35;;;0.70;;
41739;SDS011;27422;52.444;13.300;2022-08-01T13:31:33;1.75;;;0.45;;
41739;SDS011;27422;52.444;13.300;2022-08-01T13:33:59;0.80;;;0.40;;
41739;SDS011;27422;52.444;13.300;2022-08-01T13:36:25;1.35;;;0.55;;
41739;SDS011;27422;52.444;13.300;2022-08-01T13:38:55;1.83;;;0.50;;
41739;SDS011;27422;52.444;13.300;2022-08-01T13:41:39;1.52;;;0.30;;
41739;SDS011;27422;52.444;13.300;2022-08-01T13:44:05;1.02;;;0.40;;
41739;SDS011;27422;52.444;13.300;2022-08-01T13:46:37;0.60;;;0.30;;
41739;SDS011;27422;52.444;13.300;2022-08-01T13:49:03;1.13;;;0.47;;
41739;SDS011;27422;52.444;13.300;2022-08-01T13:51:29;3.03;;;0.60;;
41739;SDS011;27422;52.444;13.300;2022-08-01T13:53:55;2.50;;;0.40;;
41739;SDS011;27422;52.444;13.300;2022-08-01T13:56:20;1.98;;;0.40;;
41739;SDS011;27422;52.444;13.300;2022-08-01T13:58:45;2.22;;;0.52;;
41739;SDS011;27422;52.444;13.300;2022-08-01T14:01:11;2.67;;;0.50;;
41739;SDS011;27422;52.444;13.300;2022-08-01T14:03:37;1.33;;;0.40;;
41739;SDS011;27422;52.444;13.300;2022-08-01T14:06:02;1.00;;;0.13;;
41739;SDS011;27422;52.444;13.300;2022-08-01T14:08:28;0.63;;;0.20;;
41739;SDS011;27422;52.444;13.300;2022-08-01T14:10:53;1.25;;;0.30;;
41739;SDS011;27422;52.444;13.300;2022-08-01T14:13:22;1.77;;;0.28;;
41739;SDS011;27422;52.444;13.300;2022-08-01T14:15:47;3.00;;;0.38;;
41739;SDS011;27422;52.444;13.300;2022-08-01T14:18:13;1.27;;;0.40;;
41739;SDS011;27422;52.444;13.300;2022-08-01T14:20:38;1.00;;;0.35;;
41739;SDS011;27422;52.444;13.300;2022-08-01T14:23:04;2.95;;;0.40;;
41739;SDS011;27422;52.444;13.300;2022-08-01T14:25:29;0.57;;;0.20;;
41739;SDS011;27422;52.444;13.300;2022-08-01T14:27:55;1.02;;;0.30;;
41739;SDS011;27422;52.444;13.300;2022-08-01T14:30:20;1.92;;;0.50;;
41739;SDS011;27422;52.444;13.300;2022-08-01T14:32:46;1.80;;;0.30;;
41739;SDS011;27422;52.444;13.300;2022-08-01T14:35:11;1.05;;;0.40;;
41739;SDS011;27422;52.444;13.300;2022-08-01T14:37:36;0.77;;;0.38;;
41739;SDS011;27422;52.444;13.300;2022-08-01T14:40:02;1.70;;;0.45;;
41739;SDS011;27422;52.444;13.300;2022-08-01T14:42:30;0.68;;;0.35;;
41739;SDS011;27422;52.444;13.300;2022-08-01T14:44:55;1.20;;;0.45;;
41739;SDS011;27422;52.444;13.300;2022-08-01T14:47:21;3.08;;;0.32;;
41739;SDS011;27422;52.444;13.300;2022-08-01T14:49:46;0.90;;;0.20;;
41739;SDS011;27422;52.444;13.300;2022-08-01T14:52:15;1.48;;;0.40;;
41739;SDS011;27422;52.444;13.300;2022-08-01T14:54:40;0.60;;;0.30;;
41739;SDS011;27422;52.444;13.300;2022-08-01T14:57:05;1.55;;;0.30;;
41739;SDS011;27422;52.444;13.300;2022-08-01T14:59:31;3.10;;;0.55;;
41739;SDS011;27422;52.444;13.300;2022-08-01T15:02:02;2.08;;;0.40;;
41739;SDS011;27422;52.444;13.300;2022-08-01T15:04:28;1.23;;;0.20;;
41739;SDS011;27422;52.444;13.300;2022-08-01T15:06:53;0.73;;;0.30;;
41739;SDS011;27422;52.444;13.300;2022-08-01T15:09:19;0.95;;;0.35;;
41739;SDS011;27422;52.444;13.300;2022-08-01T15:11:44;1.67;;;0.50;;
41739;SDS011;27422;52.444;13.300;2022-08-01T15:14:11;1.77;;;0.50;;
41739;SDS011;27422;52.444;13.300;2022-08-01T15:16:55;5.43;;;0.82;;
41739;SDS011;27422;52.444;13.300;2022-08-01T15:19:20;2.15;;;0.50;;
41739;SDS011;27422;52.444;13.300;2022-08-01T15:21:46;1.05;;;0.40;;
41739;SDS011;27422;52.444;13.300;2022-08-01T15:24:11;1.30;;;0.50;;
41739;SDS011;27422;52.444;13.300;2022-08-01T15:26:36;1.88;;;0.40;;
41739;SDS011;27422;52.444;13.300;2022-08-01T15:29:02;2.72;;;0.40;;
41739;SDS011;27422;52.444;13.300;2022-08-01T15:31:27;1.95;;;0.40;;
41739;SDS011;27422;52.444;13.300;2022-08-01T15:33:53;0.82;;;0.32;;
41739;SDS011;27422;52.444;13.300;2022-08-01T15:36:19;1.70;;;0.90;;